Time;durP1;ratioP1;P1;durP2;ratioP2;P2;SDS_P1;SDS_P2;PMS_P1;PMS_P2;Temp;Humidity;BMP_temperature;BMP_pressure;BME280_temperature;BME280_humidity;BME280_pressure;Samples;Min_cycle;Max_cycle;Signal;HPM_P1;HPM_P2
2022/01/01 00:01:34;;;;;;;34.72;23.52;;;9.30;65.50;;;;;;5088082;28;20414;-89
2022/01/01 00:04:00;;;;;;;37.72;22.83;;;9.30;65.80;;;;;;5050999;28;20031;-89
2022/01/01 00:06:26;;;;;;;35.83;22.50;;;9.30;65.80;;;;;;5090629;28;20489;-89
2022/01/01 00:08:52;;;;;;;35.95;22.17;;;9.30;66.00;;;;;;5071087;28;20085;-93
2022/01/01 00:11:18;;;;;;;32.05;21.95;;;9.30;66.10;;;;;;5070833;28;20498;-91
2022/01/01 00:13:44;;;;;;;33.67;21.45;;;9.30;66.00;;;;;;5071191;28;20028;-93
2022/01/01 00:16:10;;;;;;;34.08;20.88;;;9.40;66.10;;;;;;5070412;28;20065;-87
2022/01/01 00:18:36;;;;;;;31.42;20.55;;;9.30;66.10;;;;;;5087774;28;20020;-88
2022/01/01 00:21:03;;;;;;;27.77;19.17;;;9.40;66.20;;;;;;5053918;28;20081;-88
2022/01/01 00:23:29;;;;;;;31.98;20.90;;;9.40;66.30;;;;;;5070622;28;20650;-88
2022/01/01 00:25:55;;;;;;;28.38;19.15;;;9.40;66.50;;;;;;5085820;28;20111;-89
2022/01/01 00:28:21;;;;;;;27.08;18.55;;;9.40;66.40;;;;;;5089146;28;20486;-90
2022/01/01 00:30:47;;;;;;;29.15;19.00;;;9.40;66.40;;;;;;5086860;28;20111;-88
2022/01/01 00:33:13;;;;;;;28.98;19.02;;;9.40;66.50;;;;;;5071540;28;20052;-89
2022/01/01 00:35:40;;;;;;;28.15;18.58;;;9.40;66.60;;;;;;5086239;28;20498;-88
2022/01/01 00:38:07;;;;;;;26.55;18.38;;;9.40;66.50;;;;;;5088556;28;20035;-88
2022/01/01 00:40:33;;;;;;;25.80;17.38;;;9.50;66.40;;;;;;5070480;28;20123;-88
2022/01/01 00:43:01;;;;;;;25.33;17.65;;;9.50;66.20;;;;;;5087083;28;20126;-87
2022/01/01 00:45:27;;;;;;;24.08;16.83;;;9.50;66.20;;;;;;5068612;28;20038;-87
2022/01/01 00:47:53;;;;;;;24.48;16.20;;;9.50;66.10;;;;;;5069028;28;20028;-88
2022/01/01 00:50:39;;;;;;;28.25;16.30;;;9.50;66.20;;;;;;5087709;28;20032;-88
2022/01/01 00:53:05;;;;;;;24.70;16.75;;;9.50;66.30;;;;;;5087273;28;20479;-87
2022/01/01 00:55:31;;;;;;;21.33;14.63;;;9.50;66.30;;;;;;5087776;28;20028;-87
2022/01/01 00:57:57;;;;;;;23.33;15.60;;;9.50;66.40;;;;;;5087803;28;20074;-86
2022/01/01 01:00:23;;;;;;;24.50;16.75;;;9.50;66.40;;;;;;5055633;28;20070;-87
2022/01/01 01:02:49;;;;;;;20.85;15.02;;;9.60;66.50;;;;;;5088455;28;20139;-87
2022/01/01 01:05:14;;;;;;;20.80;14.88;;;9.60;66.50;;;;;;5069279;28;20040;-87
2022/01/01 01:07:40;;;;;;;23.45;15.45;;;9.60;66.50;;;;;;5070241;28;20119;-85
2022/01/01 01:10:06;;;;;;;23.00;14.20;;;9.60;66.50;;;;;;5086334;28;20066;-87
2022/01/01 01:12:42;;;;;;;23.15;14.93;;;9.60;67.10;;;;;;5069327;28;20494;-83
2022/01/01 01:15:17;;;;;;;23.55;14.57;;;9.60;66.60;;;;;;5068290;28;20024;-85
2022/01/01 01:17:48;;;;;;;19.98;14.77;;;9.60;66.60;;;;;;5087027;28;20038;-85
2022/01/01 01:20:15;;;;;;;19.48;13.77;;;9.60;66.60;;;;;;5084044;28;20819;-83
2022/01/01 01:22:41;;;;;;;19.63;14.07;;;9.60;66.60;;;;;;5068537;28;20055;-84
2022/01/01 01:25:08;;;;;;;19.27;13.73;;;9.60;66.60;;;;;;5066751;28;20078;-84
2022/01/01 01:27:36;;;;;;;18.88;13.38;;;9.60;66.60;;;;;;5067816;28;20032;-84
2022/01/01 01:30:04;;;;;;;18.38;13.10;;;9.60;66.50;;;;;;5086275;28;20074;-84
2022/01/01 01:32:31;;;;;;;17.35;12.32;;;9.60;66.50;;;;;;5086028;28;20059;-87
2022/01/01 01:34:56;;;;;;;16.98;12.93;;;9.60;66.50;;;;;;5068134;28;20118;-87
2022/01/01 01:37:23;;;;;;;19.00;12.95;;;9.60;66.50;;;;;;5093975;28;20063;-87
2022/01/01 01:39:49;;;;;;;16.92;12.38;;;9.60;66.50;;;;;;5086395;28;20029;-88
2022/01/01 01:42:15;;;;;;;16.27;12.35;;;9.60;66.50;;;;;;5091874;28;20139;-87
2022/01/01 01:44:44;;;;;;;16.75;12.45;;;9.70;66.60;;;;;;5086978;28;20565;-88
2022/01/01 01:47:15;;;;;;;17.45;12.00;;;9.70;66.60;;;;;;5066938;28;20032;-86
2022/01/01 01:49:43;;;;;;;16.13;11.50;;;9.60;66.60;;;;;;5070845;28;20448;-88
2022/01/01 01:52:09;;;;;;;15.25;11.20;;;9.70;66.80;;;;;;5086805;28;20029;-84
2022/01/01 01:54:36;;;;;;;16.30;11.68;;;9.60;66.70;;;;;;5075785;28;20036;-85
2022/01/01 01:57:03;;;;;;;14.48;11.23;;;9.70;66.70;;;;;;5098128;28;20554;-86
2022/01/01 01:59:29;;;;;;;17.63;11.80;;;9.70;66.60;;;;;;5090728;28;20114;-86
2022/01/01 02:01:55;;;;;;;15.52;10.95;;;9.60;66.60;;;;;;5076948;28;20032;-84
2022/01/01 02:04:21;;;;;;;15.68;11.25;;;9.70;66.70;;;;;;5059447;28;20566;-85
2022/01/01 02:06:48;;;;;;;14.68;10.98;;;9.70;66.80;;;;;;5072767;28;20054;-86
2022/01/01 02:09:15;;;;;;;13.93;10.27;;;9.70;66.90;;;;;;5071637;28;20039;-84
2022/01/01 02:11:41;;;;;;;13.85;9.93;;;9.70;67.00;;;;;;5068572;28;20130;-85
2022/01/01 02:14:24;;;;;;;16.10;10.90;;;9.70;66.90;;;;;;5083468;28;20113;-86
2022/01/01 02:19:22;;;;;;;13.70;9.55;;;9.70;67.00;;;;;;5084030;28;20034;-88
2022/01/01 02:21:47;;;;;;;14.05;9.57;;;9.70;67.00;;;;;;5063887;28;20048;-86
2022/01/01 02:24:13;;;;;;;17.52;10.10;;;9.70;67.00;;;;;;5084457;28;20058;-86
2022/01/01 02:26:39;;;;;;;13.93;9.77;;;9.70;66.90;;;;;;5084066;28;20031;-86
2022/01/01 02:29:05;;;;;;;12.40;9.57;;;9.70;66.90;;;;;;5066790;28;20054;-85
2022/01/01 02:31:33;;;;;;;15.15;9.63;;;9.70;67.00;;;;;;5085649;28;20074;-84
2022/01/01 02:34:04;;;;;;;11.30;8.45;;;9.70;67.00;;;;;;5084187;28;20054;-84
2022/01/01 02:36:39;;;;;;;12.35;9.38;;;9.70;67.00;;;;;;5067275;28;20640;-84
2022/01/01 02:39:13;;;;;;;11.48;9.00;;;9.80;67.00;;;;;;5067692;28;20097;-83
2022/01/01 02:41:40;;;;;;;11.75;8.52;;;9.70;67.00;;;;;;5074680;28;20124;-83
2022/01/01 02:44:06;;;;;;;14.00;8.52;;;9.80;67.10;;;;;;5067519;28;20039;-83
2022/01/01 02:46:35;;;;;;;10.38;8.02;;;9.80;67.00;;;;;;5086139;28;20028;-83
2022/01/01 02:49:02;;;;;;;11.13;8.38;;;9.70;67.00;;;;;;5085090;28;20514;-84
2022/01/01 02:51:28;;;;;;;11.68;8.57;;;9.70;67.00;;;;;;5084721;28;20024;-83
2022/01/01 02:53:54;;;;;;;10.90;7.55;;;9.80;67.10;;;;;;5067677;28;20028;-81
2022/01/01 02:56:20;;;;;;;10.02;7.95;;;9.80;67.20;;;;;;5064906;28;20028;-83
2022/01/01 02:58:46;;;;;;;10.40;7.32;;;9.80;67.00;;;;;;5067964;28;20070;-84
2022/01/01 03:01:12;;;;;;;11.88;7.32;;;9.80;67.10;;;;;;5086052;28;20466;-84
2022/01/01 03:03:38;;;;;;;8.45;6.70;;;9.80;67.10;;;;;;5084515;28;20035;-85
2022/01/01 03:06:04;;;;;;;10.95;7.07;;;9.80;67.20;;;;;;5085577;28;20086;-83
2022/01/01 03:08:31;;;;;;;9.15;6.88;;;9.80;67.10;;;;;;5074890;28;20036;-84
2022/01/01 03:10:57;;;;;;;10.63;6.63;;;9.80;67.00;;;;;;5084634;28;20035;-84
2022/01/01 03:13:22;;;;;;;9.00;6.75;;;9.80;66.90;;;;;;5086510;28;20407;-85
2022/01/01 03:15:48;;;;;;;8.82;6.28;;;9.70;66.90;;;;;;5068338;28;20043;-85
2022/01/01 03:18:14;;;;;;;8.30;6.38;;;9.80;66.90;;;;;;5051196;28;20040;-83
2022/01/01 03:20:40;;;;;;;7.40;6.13;;;9.80;67.00;;;;;;5067665;28;20105;-84
2022/01/01 03:23:06;;;;;;;9.38;6.70;;;9.80;66.90;;;;;;5068479;28;20046;-82
2022/01/01 03:25:32;;;;;;;9.95;6.30;;;9.80;67.00;;;;;;5070667;28;20063;-83
2022/01/01 03:27:58;;;;;;;10.63;7.47;;;9.80;67.00;;;;;;5088330;28;20109;-83
2022/01/01 03:30:24;;;;;;;11.40;6.78;;;9.80;67.00;;;;;;5088594;28;20055;-83
2022/01/01 03:32:50;;;;;;;8.80;5.93;;;9.80;67.00;;;;;;5070964;28;20045;-83
2022/01/01 03:35:15;;;;;;;8.90;6.03;;;9.80;67.00;;;;;;5087134;28;20439;-83
2022/01/01 03:37:41;;;;;;;8.75;6.13;;;9.80;67.10;;;;;;5088170;28;20119;-85
2022/01/01 03:40:08;;;;;;;7.95;5.75;;;9.80;67.10;;;;;;5090120;28;20097;-85
2022/01/01 03:42:34;;;;;;;8.30;6.50;;;9.80;67.10;;;;;;5068901;28;20521;-84
2022/01/01 03:45:00;;;;;;;9.70;6.18;;;9.90;67.10;;;;;;5089932;28;20494;-81
2022/01/01 03:47:26;;;;;;;10.30;5.88;;;9.80;67.10;;;;;;5088800;28;20101;-84
2022/01/01 03:49:51;;;;;;;8.93;6.20;;;9.90;67.20;;;;;;5086867;28;20505;-81
2022/01/01 03:52:18;;;;;;;7.78;5.43;;;9.80;67.10;;;;;;5089357;28;20039;-84
2022/01/01 03:54:44;;;;;;;8.18;5.93;;;9.90;67.20;;;;;;5088894;28;20039;-82
2022/01/01 03:57:09;;;;;;;9.65;5.78;;;9.90;67.20;;;;;;5088088;28;20024;-82
2022/01/01 03:59:35;;;;;;;7.82;5.97;;;9.90;67.20;;;;;;5088536;28;20148;-82
2022/01/01 04:02:01;;;;;;;8.85;6.07;;;9.90;67.10;;;;;;5086968;28;20039;-82
2022/01/01 04:04:27;;;;;;;9.57;5.93;;;9.90;67.20;;;;;;5088753;28;20042;-82
2022/01/01 04:06:54;;;;;;;8.57;6.30;;;9.90;67.20;;;;;;5087110;28;20529;-83
2022/01/01 04:09:20;;;;;;;8.45;6.07;;;9.90;67.20;;;;;;5086124;28;20169;-83
2022/01/01 04:11:46;;;;;;;8.80;6.28;;;9.80;67.20;;;;;;5087779;28;20111;-82
2022/01/01 04:14:15;;;;;;;7.80;5.82;;;9.80;67.80;;;;;;5069527;28;20024;-83
2022/01/01 04:16:41;;;;;;;8.07;5.47;;;9.90;67.20;;;;;;5069261;28;20032;-82
2022/01/01 04:19:08;;;;;;;8.38;5.75;;;9.80;67.00;;;;;;5074734;28;20039;-84
2022/01/01 04:21:35;;;;;;;9.60;6.03;;;9.90;67.00;;;;;;5072918;28;20123;-82
2022/01/01 04:24:02;;;;;;;8.57;6.03;;;9.90;67.00;;;;;;5087883;28;20043;-82
2022/01/01 04:26:28;;;;;;;8.10;6.00;;;9.90;67.00;;;;;;5069021;28;20040;-83
2022/01/01 04:28:54;;;;;;;9.75;6.55;;;9.90;67.10;;;;;;5087146;28;20458;-83
2022/01/01 04:31:20;;;;;;;9.70;6.32;;;9.90;67.10;;;;;;5062608;28;20130;-82
2022/01/01 04:33:46;;;;;;;9.45;6.40;;;9.90;67.20;;;;;;5067831;28;20407;-82
2022/01/01 04:36:12;;;;;;;7.70;5.72;;;9.90;67.10;;;;;;5066324;28;20028;-82
2022/01/01 04:38:41;;;;;;;8.98;5.93;;;9.90;67.10;;;;;;5047667;28;20035;-81
2022/01/01 04:41:16;;;;;;;9.70;6.47;;;9.90;67.80;;;;;;5065672;28;20418;-81
2022/01/01 04:43:44;;;;;;;10.02;5.97;;;9.90;67.00;;;;;;5066244;28;20044;-81
2022/01/01 04:46:13;;;;;;;8.75;6.10;;;9.90;67.00;;;;;;5066241;28;20044;-80
2022/01/01 04:48:40;;;;;;;9.35;6.13;;;9.90;67.10;;;;;;5067336;28;20134;-78
2022/01/01 04:51:08;;;;;;;9.43;6.40;;;9.90;67.10;;;;;;5068026;28;20044;-81
2022/01/01 04:53:39;;;;;;;9.18;6.20;;;9.90;67.20;;;;;;5065978;28;20029;-81
2022/01/01 04:56:07;;;;;;;8.82;6.15;;;10.00;67.20;;;;;;5065538;28;20032;-82
2022/01/01 04:58:34;;;;;;;10.05;5.82;;;9.90;67.10;;;;;;5066150;28;20032;-81
2022/01/01 05:01:00;;;;;;;9.63;6.35;;;9.90;67.20;;;;;;5065192;28;20036;-80
2022/01/01 05:03:26;;;;;;;8.65;6.15;;;10.00;67.20;;;;;;5066576;28;20040;-82
2022/01/01 05:05:52;;;;;;;9.40;6.38;;;10.00;67.20;;;;;;5072535;28;20559;-81
2022/01/01 05:08:17;;;;;;;9.40;5.95;;;10.00;67.20;;;;;;5066412;28;20039;-80
2022/01/01 05:10:43;;;;;;;9.85;6.38;;;9.90;67.10;;;;;;5067344;28;20031;-81
2022/01/01 05:13:09;;;;;;;11.68;6.95;;;10.00;67.20;;;;;;5065964;28;20074;-83
2022/01/01 05:15:35;;;;;;;9.73;5.78;;;9.90;67.10;;;;;;5065388;28;20097;-80
2022/01/01 05:18:02;;;;;;;9.60;6.20;;;10.00;67.30;;;;;;5066834;28;20052;-81
2022/01/01 05:20:27;;;;;;;8.13;5.63;;;10.00;67.50;;;;;;5063544;28;20127;-82
2022/01/01 05:22:53;;;;;;;9.30;5.95;;;10.00;67.60;;;;;;5064574;28;20170;-82
2022/01/01 05:25:19;;;;;;;9.57;5.82;;;10.00;67.90;;;;;;5065039;28;20093;-81
2022/01/01 05:27:45;;;;;;;8.30;5.90;;;10.00;68.00;;;;;;5065530;28;20034;-81
2022/01/01 05:30:12;;;;;;;8.82;6.03;;;10.10;67.40;;;;;;5065915;28;20040;-81
2022/01/01 05:32:37;;;;;;;10.60;6.30;;;10.10;67.40;;;;;;5083071;28;20055;-81
2022/01/01 05:35:04;;;;;;;8.43;5.68;;;10.20;67.50;;;;;;5067409;28;20464;-81
2022/01/01 05:37:30;;;;;;;9.65;6.45;;;10.20;67.60;;;;;;5086990;28;20036;-81
2022/01/01 05:39:56;;;;;;;9.25;6.18;;;10.30;67.10;;;;;;5085263;28;20047;-81
2022/01/01 05:42:22;;;;;;;9.25;6.45;;;10.30;67.20;;;;;;5087537;28;20043;-81
2022/01/01 05:44:48;;;;;;;8.18;5.65;;;10.40;67.40;;;;;;5084815;28;20040;-82
2022/01/01 05:47:14;;;;;;;10.43;6.35;;;10.40;66.90;;;;;;5084153;28;20067;-82
2022/01/01 05:49:40;;;;;;;7.25;5.88;;;10.50;67.00;;;;;;5066891;28;20393;-81
2022/01/01 05:52:06;;;;;;;11.07;6.25;;;10.50;66.80;;;;;;5066811;28;20032;-82
2022/01/01 05:54:32;;;;;;;8.88;5.95;;;10.60;66.80;;;;;;5065664;28;20147;-82
2022/01/01 05:56:59;;;;;;;8.52;6.07;;;10.60;66.60;;;;;;5085128;28;20541;-82
2022/01/01 05:59:25;;;;;;;8.65;6.00;;;10.70;66.60;;;;;;5074754;28;20036;-82
2022/01/01 06:01:51;;;;;;;8.48;6.20;;;10.80;66.30;;;;;;5086471;28;20076;-82
2022/01/01 06:04:17;;;;;;;8.00;6.53;;;10.90;66.10;;;;;;5068046;28;20119;-81
2022/01/01 06:06:43;;;;;;;9.55;5.95;;;10.90;65.90;;;;;;5085764;28;20024;-81
2022/01/01 06:09:09;;;;;;;9.32;6.07;;;11.00;65.80;;;;;;5065085;28;20490;-82
2022/01/01 06:11:35;;;;;;;8.23;5.97;;;11.00;65.70;;;;;;5051026;28;20121;-80
2022/01/01 06:14:01;;;;;;;8.73;5.57;;;11.00;65.60;;;;;;5085101;28;20122;-81
2022/01/01 06:16:27;;;;;;;9.60;6.00;;;11.10;65.40;;;;;;5086470;28;20115;-82
2022/01/01 06:18:52;;;;;;;10.20;6.13;;;11.10;65.20;;;;;;5076302;28;20123;-82
2022/01/01 06:21:18;;;;;;;8.43;5.68;;;11.20;65.90;;;;;;5065283;28;20035;-81
2022/01/01 06:23:44;;;;;;;7.93;6.03;;;11.20;65.20;;;;;;5067158;28;20421;-81
2022/01/01 06:26:10;;;;;;;8.13;5.78;;;11.20;65.00;;;;;;5085762;28;20041;-82
2022/01/01 06:28:36;;;;;;;10.07;6.68;;;11.30;64.70;;;;;;5068796;28;20035;-81
2022/01/01 06:31:02;;;;;;;8.70;5.93;;;11.30;64.60;;;;;;5084316;28;20048;-82
2022/01/01 06:33:28;;;;;;;11.32;7.00;;;11.30;64.50;;;;;;5084246;28;20055;-82
2022/01/01 06:35:56;;;;;;;10.25;6.38;;;11.30;65.10;;;;;;5066401;28;20032;-82
2022/01/01 06:38:22;;;;;;;8.68;6.75;;;11.30;64.50;;;;;;5084463;28;20085;-82
2022/01/01 06:40:48;;;;;;;11.00;6.60;;;11.30;64.50;;;;;;5085088;28;20044;-82
2022/01/01 06:43:16;;;;;;;9.90;6.70;;;11.30;64.70;;;;;;5066337;28;20093;-82
2022/01/01 06:45:42;;;;;;;9.68;6.60;;;11.30;64.70;;;;;;5066055;28;20441;-81
2022/01/01 06:48:08;;;;;;;8.93;6.72;;;11.40;64.70;;;;;;5084887;28;20059;-81
2022/01/01 06:50:37;;;;;;;8.73;6.63;;;11.40;64.80;;;;;;5083980;28;20039;-80
2022/01/01 06:53:03;;;;;;;9.27;6.88;;;11.50;64.60;;;;;;5085110;28;20130;-80
2022/01/01 06:55:29;;;;;;;8.80;7.00;;;11.60;64.30;;;;;;5082666;28;20507;-81
2022/01/01 06:57:55;;;;;;;10.32;6.15;;;11.60;64.10;;;;;;5083128;28;20036;-81
2022/01/01 07:00:21;;;;;;;11.05;7.20;;;11.70;64.00;;;;;;5084468;28;20620;-80
2022/01/01 07:02:47;;;;;;;12.05;7.35;;;11.70;63.90;;;;;;5050061;28;20035;-80
2022/01/01 07:05:15;;;;;;;10.43;7.13;;;11.80;63.80;;;;;;5065734;28;20028;-80
2022/01/01 07:07:41;;;;;;;9.82;7.03;;;11.80;63.50;;;;;;5046657;28;20031;-80
2022/01/01 07:10:09;;;;;;;9.45;6.85;;;11.90;63.50;;;;;;5084202;28;20031;-80
2022/01/01 07:12:37;;;;;;;12.43;7.18;;;11.90;63.40;;;;;;5084240;28;20036;-80
2022/01/01 07:15:05;;;;;;;11.77;7.07;;;11.90;63.40;;;;;;5083296;28;20024;-80
2022/01/01 07:17:31;;;;;;;9.55;6.90;;;11.90;63.30;;;;;;5066865;28;20027;-81
2022/01/01 07:19:57;;;;;;;9.98;7.75;;;11.90;63.30;;;;;;5066308;28;20480;-79
2022/01/01 07:22:23;;;;;;;11.63;6.93;;;11.80;63.30;;;;;;5084619;28;20418;-81
2022/01/01 07:24:49;;;;;;;8.93;6.93;;;11.90;63.30;;;;;;5066772;28;20514;-80
2022/01/01 07:27:17;;;;;;;10.40;7.57;;;11.90;63.20;;;;;;5085856;28;20067;-79
2022/01/01 07:29:42;;;;;;;10.35;7.65;;;12.00;62.90;;;;;;5067014;28;20032;-82
2022/01/01 07:32:09;;;;;;;11.73;7.28;;;12.20;62.60;;;;;;5082882;28;20052;-81
2022/01/01 07:34:35;;;;;;;9.98;7.38;;;12.20;62.30;;;;;;5083541;28;20032;-80
2022/01/01 07:37:01;;;;;;;10.95;7.80;;;12.30;62.20;;;;;;5063552;28;20050;-80
2022/01/01 07:39:26;;;;;;;10.13;7.38;;;12.30;62.10;;;;;;5084341;28;20036;-81
2022/01/01 07:41:52;;;;;;;10.30;7.10;;;12.30;61.80;;;;;;5082922;28;20033;-81
2022/01/01 07:44:18;;;;;;;9.27;6.63;;;12.40;61.70;;;;;;5082860;28;20028;-82
2022/01/01 07:46:44;;;;;;;8.90;6.90;;;12.40;61.80;;;;;;5084171;28;20040;-82
2022/01/01 07:49:10;;;;;;;10.50;7.53;;;12.40;62.00;;;;;;5082371;28;20071;-82
2022/01/01 07:51:36;;;;;;;9.82;6.97;;;12.40;62.30;;;;;;5082366;28;20064;-81
2022/01/01 07:54:02;;;;;;;9.32;7.32;;;12.40;62.30;;;;;;5084875;28;20032;-81
2022/01/01 07:56:28;;;;;;;10.70;7.47;;;12.30;62.30;;;;;;5084365;28;20039;-80
2022/01/01 07:58:54;;;;;;;9.40;6.95;;;12.40;62.40;;;;;;5083321;28;20035;-81
2022/01/01 08:01:19;;;;;;;11.00;8.18;;;12.40;62.50;;;;;;5085479;28;20119;-79
2022/01/01 08:03:49;;;;;;;13.43;8.45;;;12.40;62.30;;;;;;5075430;28;20036;-82
2022/01/01 08:06:18;;;;;;;13.88;7.80;;;12.40;62.20;;;;;;5084164;28;20044;-80
2022/01/01 08:08:44;;;;;;;10.02;7.10;;;12.40;62.20;;;;;;5083879;28;20030;-82
2022/01/01 08:11:10;;;;;;;11.38;8.00;;;12.40;62.10;;;;;;5086852;28;20123;-79
2022/01/01 08:13:36;;;;;;;9.77;7.78;;;12.50;61.90;;;;;;5088661;28;20032;-82
2022/01/01 08:16:02;;;;;;;12.27;9.38;;;12.60;61.90;;;;;;5088771;28;20123;-83
2022/01/01 08:18:29;;;;;;;15.63;9.68;;;12.60;60.10;;;;;;5084565;28;20394;-85
2022/01/01 08:20:56;;;;;;;16.08;10.07;;;12.50;58.50;;;;;;5066611;28;20652;-85
2022/01/01 08:23:22;;;;;;;12.20;9.30;;;12.40;57.50;;;;;;5084940;28;20032;-84
2022/01/01 08:25:48;;;;;;;14.50;9.98;;;12.30;56.80;;;;;;5070057;28;20043;-82
2022/01/01 08:28:14;;;;;;;13.15;9.77;;;12.30;56.50;;;;;;5084293;28;20039;-84
2022/01/01 08:30:40;;;;;;;11.43;9.27;;;12.20;56.20;;;;;;5083652;28;20441;-84
2022/01/01 08:33:06;;;;;;;13.00;9.73;;;12.10;56.00;;;;;;5084030;28;20150;-84
2022/01/01 08:35:34;;;;;;;13.57;9.52;;;12.10;55.90;;;;;;5056094;28;20032;-84
2022/01/01 08:38:04;;;;;;;13.40;9.88;;;12.10;55.50;;;;;;5068062;28;20403;-86
2022/01/01 08:40:31;;;;;;;13.30;8.77;;;12.00;55.30;;;;;;5068494;28;20114;-86
2022/01/01 08:42:57;;;;;;;10.55;8.30;;;12.00;55.50;;;;;;5085768;28;20563;-86
2022/01/01 08:45:24;;;;;;;11.55;8.65;;;11.90;55.70;;;;;;5085589;28;20044;-88
2022/01/01 08:47:50;;;;;;;13.30;8.95;;;11.90;55.70;;;;;;5086409;28;20028;-86
2022/01/01 08:50:16;;;;;;;10.45;7.82;;;11.90;55.50;;;;;;5067865;28;20032;-84
2022/01/01 08:52:43;;;;;;;11.27;7.75;;;11.90;55.60;;;;;;5087305;28;20073;-86
2022/01/01 08:55:10;;;;;;;10.98;7.93;;;11.90;55.40;;;;;;5087310;28;20190;-85
2022/01/01 08:57:36;;;;;;;11.05;8.00;;;11.90;55.40;;;;;;5066020;28;20092;-84
2022/01/01 09:00:07;;;;;;;12.80;8.00;;;11.90;55.20;;;;;;5082219;28;20084;-84
2022/01/01 09:02:33;;;;;;;12.57;7.75;;;11.90;55.00;;;;;;5083707;28;20414;-83
2022/01/01 09:04:59;;;;;;;10.32;7.57;;;11.90;55.00;;;;;;5084795;28;20039;-84
2022/01/01 09:07:28;;;;;;;10.77;7.60;;;11.90;54.80;;;;;;5065534;28;20041;-86
2022/01/01 09:09:58;;;;;;;9.48;6.90;;;11.90;54.80;;;;;;5083108;28;20375;-84
2022/01/01 09:12:25;;;;;;;10.05;7.97;;;11.90;54.60;;;;;;5070027;28;20063;-86
2022/01/01 09:14:51;;;;;;;10.45;7.10;;;11.90;54.70;;;;;;5087452;28;20032;-86
2022/01/01 09:17:17;;;;;;;11.25;8.00;;;12.00;54.40;;;;;;5077691;28;20035;-88
2022/01/01 09:19:43;;;;;;;11.85;7.15;;;12.00;54.30;;;;;;5072385;28;20036;-86
2022/01/01 09:22:09;;;;;;;8.50;6.43;;;12.00;54.10;;;;;;5091435;28;20039;-89
2022/01/01 09:24:35;;;;;;;9.82;6.18;;;12.00;54.00;;;;;;5093053;28;20077;-88
2022/01/01 09:27:02;;;;;;;9.68;5.95;;;12.10;57.70;;;;;;5071656;28;20055;-88
2022/01/01 09:29:28;;;;;;;9.23;5.65;;;12.20;60.90;;;;;;5055865;28;20039;-90
2022/01/01 09:31:54;;;;;;;6.22;5.43;;;12.40;61.30;;;;;;5090284;28;20048;-90
2022/01/01 09:34:20;;;;;;;10.38;5.10;;;12.60;61.60;;;;;;5073022;28;20444;-90
2022/01/01 09:36:47;;;;;;;8.00;5.38;;;12.80;61.60;;;;;;5054234;28;20033;-87
2022/01/01 09:39:13;;;;;;;8.00;6.00;;;12.90;61.60;;;;;;5092098;28;20505;-84
2022/01/01 09:41:42;;;;;;;10.13;6.40;;;13.00;58.90;;;;;;5076250;28;20158;-83
2022/01/01 09:44:16;;;;;;;8.98;5.80;;;13.00;55.40;;;;;;5089585;28;20051;-83
2022/01/01 09:46:45;;;;;;;7.38;5.30;;;12.80;54.20;;;;;;5086441;28;20134;-83
2022/01/01 09:49:13;;;;;;;6.22;4.75;;;12.70;53.00;;;;;;5090551;28;20056;-83
2022/01/01 09:51:41;;;;;;;8.55;5.10;;;12.50;52.50;;;;;;5085839;28;20073;-83
2022/01/01 09:54:08;;;;;;;6.97;5.15;;;12.40;52.10;;;;;;5067518;28;20028;-83
2022/01/01 09:56:34;;;;;;;5.60;4.60;;;12.40;55.70;;;;;;5087980;28;20124;-82
2022/01/01 09:59:00;;;;;;;7.10;4.38;;;12.30;54.90;;;;;;5072651;28;20024;-83
2022/01/01 10:01:26;;;;;;;5.80;4.93;;;12.30;53.20;;;;;;5072326;28;20043;-83
2022/01/01 10:03:53;;;;;;;8.80;5.38;;;12.10;52.30;;;;;;5057271;28;20028;-84
2022/01/01 10:06:21;;;;;;;8.85;5.00;;;12.00;52.20;;;;;;5081490;28;20553;-82
2022/01/01 10:09:07;;;;;;;6.95;4.70;;;11.80;53.00;;;;;;5091048;28;20055;-80
2022/01/01 10:11:33;;;;;;;;;;;11.80;52.50;;;;;;5090879;28;20077;-82
2022/01/01 10:14:03;;;;;;;7.32;4.85;;;11.80;52.20;;;;;;5087501;28;20406;-78
2022/01/01 10:16:29;;;;;;;6.68;4.60;;;11.80;51.70;;;;;;5090332;28;20028;-82
2022/01/01 10:18:55;;;;;;;7.60;4.40;;;11.80;51.30;;;;;;5089678;28;20039;-81
2022/01/01 10:21:23;;;;;;;4.90;3.85;;;11.80;50.90;;;;;;5091466;28;20040;-83
2022/01/01 10:23:53;;;;;;;4.95;3.92;;;11.80;50.50;;;;;;5079734;28;20020;-83
2022/01/01 10:29:11;;;;;;;3.35;2.90;;;11.50;50.70;;;;;;5076233;28;20028;-82
2022/01/01 10:31:39;;;;;;;4.45;3.08;;;11.40;50.40;;;;;;5083998;28;20440;-82
2022/01/01 10:34:14;;;;;;;3.53;3.03;;;11.40;50.30;;;;;;5077112;28;20024;-83
2022/01/01 10:36:43;;;;;;;3.35;3.05;;;11.30;50.40;;;;;;5090611;28;20042;-83
2022/01/01 10:39:21;;;;;;;3.08;2.63;;;11.30;50.40;;;;;;5071330;28;20561;-83
2022/01/01 10:41:54;;;;;;;3.40;2.53;;;11.40;49.90;;;;;;5086320;28;20035;-84
2022/01/01 10:44:28;;;;;;;3.78;2.40;;;11.50;49.70;;;;;;5087991;28;20036;-84
2022/01/01 10:46:59;;;;;;;4.10;2.40;;;11.50;49.60;;;;;;5098500;28;20039;-85
2022/01/01 10:49:43;;;;;;;2.45;2.20;;;11.40;49.70;;;;;;5078705;28;20028;-84
2022/01/01 10:52:16;;;;;;;2.60;1.85;;;11.50;49.50;;;;;;5086887;28;20045;-85
2022/01/01 10:54:48;;;;;;;2.67;2.42;;;11.50;49.30;;;;;;5093337;28;20168;-85
2022/01/01 10:57:20;;;;;;;2.50;1.98;;;11.30;49.50;;;;;;5087809;28;20647;-84
2022/01/01 10:59:46;;;;;;;2.28;1.80;;;11.40;49.40;;;;;;5073468;28;20024;-86
2022/01/01 11:02:12;;;;;;;1.98;1.58;;;11.30;49.50;;;;;;5089049;28;20032;-82
2022/01/01 11:04:38;;;;;;;2.17;1.70;;;11.40;49.90;;;;;;5071117;28;20035;-82
2022/01/01 11:07:06;;;;;;;1.60;1.50;;;11.50;49.40;;;;;;5089317;28;20094;-82
2022/01/01 11:09:33;;;;;;;1.67;1.58;;;11.60;49.30;;;;;;5073449;28;20112;-82
2022/01/01 11:12:03;;;;;;;2.50;1.88;;;11.60;49.20;;;;;;5080914;28;20493;-82
2022/01/01 11:14:32;;;;;;;2.10;1.90;;;11.80;52.20;;;;;;5063147;28;20028;-86
2022/01/01 11:17:01;;;;;;;2.78;1.95;;;12.00;51.20;;;;;;5060440;28;20031;-81
2022/01/01 11:19:27;;;;;;;3.38;2.17;;;12.10;51.60;;;;;;5088296;28;20035;-81
2022/01/01 11:21:53;;;;;;;3.15;2.42;;;12.10;50.60;;;;;;5091573;28;20028;-82
2022/01/01 11:24:23;;;;;;;4.72;2.35;;;12.00;50.10;;;;;;5072456;28;20040;-82
2022/01/01 11:26:51;;;;;;;3.83;2.53;;;11.80;49.20;;;;;;5083416;28;20043;-83
2022/01/01 11:29:16;;;;;;;3.30;2.22;;;11.70;49.40;;;;;;5090029;28;20032;-80
2022/01/01 11:31:44;;;;;;;3.28;2.63;;;11.60;49.40;;;;;;5089888;28;20066;-80
2022/01/01 11:34:12;;;;;;;6.13;3.05;;;11.50;49.70;;;;;;5067128;28;20032;-81
2022/01/01 11:36:38;;;;;;;3.22;2.42;;;11.50;49.80;;;;;;5065955;28;20054;-80
2022/01/01 11:39:13;;;;;;;4.45;2.80;;;11.40;49.90;;;;;;5067192;28;20036;-81
2022/01/01 11:41:44;;;;;;;5.57;2.90;;;11.30;50.00;;;;;;5083405;28;20122;-81
2022/01/01 11:44:29;;;;;;;3.85;2.97;;;11.40;49.80;;;;;;5080948;28;20040;-82
2022/01/01 11:47:13;;;;;;;5.07;3.13;;;11.40;49.50;;;;;;5088382;28;20032;-81
2022/01/01 11:49:39;;;;;;;5.68;3.33;;;11.40;49.50;;;;;;5088368;28;20047;-81
2022/01/01 11:52:06;;;;;;;8.35;3.42;;;11.50;50.30;;;;;;5090644;28;20028;-81
2022/01/01 11:54:38;;;;;;;6.40;3.13;;;11.60;51.80;;;;;;5084006;28;20662;-81
2022/01/01 11:57:26;;;;;;;4.82;3.13;;;11.50;50.70;;;;;;5087981;28;20035;-81
2022/01/01 12:00:06;;;;;;;6.47;3.25;;;11.50;50.50;;;;;;5088016;28;20506;-80
2022/01/01 12:02:34;;;;;;;8.93;3.40;;;11.40;50.50;;;;;;5089311;28;20036;-82
2022/01/01 12:05:21;;;;;;;5.03;3.42;;;11.30;50.70;;;;;;5090196;28;20024;-80
2022/01/01 12:07:58;;;;;;;5.65;3.83;;;11.30;50.60;;;;;;5089493;28;20078;-81
2022/01/01 12:10:32;;;;;;;9.57;4.40;;;11.40;50.50;;;;;;5085402;28;20114;-82
2022/01/01 12:13:01;;;;;;;6.28;4.03;;;11.30;50.70;;;;;;5085191;28;20028;-81
2022/01/01 12:15:28;;;;;;;6.25;3.67;;;11.40;51.10;;;;;;5086096;28;20331;-81
2022/01/01 12:18:00;;;;;;;6.72;4.30;;;11.40;50.40;;;;;;5083048;28;21089;-81
2022/01/01 12:20:51;;;;;;;6.90;3.95;;;11.40;50.30;;;;;;5087098;28;20115;-81
2022/01/01 12:23:27;;;;;;;6.75;3.40;;;11.40;50.40;;;;;;5085364;28;20043;-79
2022/01/01 12:25:55;;;;;;;4.60;3.20;;;11.50;50.20;;;;;;5086117;28;20199;-80
2022/01/01 12:28:32;;;;;;;5.00;3.55;;;11.40;50.50;;;;;;5068210;28;20024;-80
2022/01/01 12:31:10;;;;;;;5.25;3.28;;;11.40;50.40;;;;;;5085241;28;20048;-80
2022/01/01 12:33:39;;;;;;;3.97;3.10;;;11.50;50.30;;;;;;5083604;28;20032;-81
2022/01/01 12:36:07;;;;;;;4.20;3.00;;;11.60;50.00;;;;;;5068351;28;20056;-79
2022/01/01 12:38:34;;;;;;;3.95;2.75;;;11.60;49.60;;;;;;5087834;28;20098;-78
2022/01/01 12:41:14;;;;;;;3.08;2.78;;;11.80;49.10;;;;;;5086158;28;20036;-80
2022/01/01 12:43:55;;;;;;;4.30;3.25;;;11.80;48.80;;;;;;5085813;28;20043;-80
2022/01/01 12:46:30;;;;;;;6.57;3.58;;;11.70;49.10;;;;;;5088656;28;20039;-80
2022/01/01 12:48:58;;;;;;;3.80;3.00;;;11.60;48.80;;;;;;5085955;28;20443;-80
2022/01/01 12:51:27;;;;;;;3.45;2.65;;;11.50;49.70;;;;;;5085473;28;20354;-81
2022/01/01 12:53:59;;;;;;;5.30;2.75;;;11.50;49.80;;;;;;5085724;28;20032;-80